createdAt,value
2023-01-18T00:04:09.029Z,30.5
2023-01-18T00:09:15.765Z,30.4
2023-01-18T00:14:38.019Z,30.4
2023-01-18T00:20:01.174Z,30.3
2023-01-18T00:25:23.773Z,30.3
2023-01-18T00:30:46.402Z,30.2
2023-01-18T00:35:57.446Z,30.1
2023-01-18T00:41:19.933Z,30.1
2023-01-18T00:46:43.165Z,30
2023-01-18T00:51:50.052Z,29.9
2023-01-18T00:56:57.799Z,29.9
2023-01-18T01:02:04.758Z,29.8
2023-01-18T01:07:27.995Z,29.8
2023-01-18T01:12:50.097Z,29.7
2023-01-18T01:18:12.496Z,29.6
2023-01-18T01:23:35.512Z,29.6
2023-01-18T01:28:27.459Z,29.5
2023-01-18T01:33:49.685Z,29.5
2023-01-18T01:38:56.270Z,29.4
2023-01-18T01:44:04.112Z,29.4
2023-01-18T01:49:26.276Z,29.4
2023-01-18T01:54:48.098Z,29.3
2023-01-18T02:00:10.141Z,29.3
2023-01-18T02:05:33.232Z,29.2
2023-01-18T02:10:55.146Z,29.2
2023-01-18T02:16:17.816Z,29.1
2023-01-18T02:21:39.822Z,29.1
2023-01-18T02:27:02.588Z,29.1
2023-01-18T02:32:10.086Z,29
2023-01-18T02:37:32.716Z,28.9
2023-01-18T02:42:55.226Z,28.9
2023-01-18T02:48:21.017Z,28.9
2023-01-18T02:53:42.777Z,28.8
2023-01-18T02:59:05.476Z,28.8
2023-01-18T03:04:28.267Z,28.8
2023-01-18T03:09:35.490Z,28.7
2023-01-18T03:14:41.781Z,28.6
2023-01-18T03:19:33.873Z,28.6
2023-01-18T03:24:42.109Z,28.6
2023-01-18T03:29:48.544Z,28.6
2023-01-18T03:35:11.575Z,28.6
2023-01-18T03:40:34.326Z,28.5
2023-01-18T03:45:57.400Z,28.5
2023-01-18T03:51:04.646Z,28.4
2023-01-18T03:56:11.646Z,28.4
2023-01-18T04:01:34.130Z,28.4
2023-01-18T04:06:57.609Z,28.3
2023-01-18T04:12:19.462Z,28.3
2023-01-18T04:17:41.560Z,28.3
2023-01-18T04:23:03.691Z,28.3
2023-01-18T04:28:10.777Z,28.2
2023-01-18T04:33:18.595Z,28.2
2023-01-18T04:38:25.781Z,28.1
2023-01-18T04:43:33.482Z,28.1
2023-01-18T04:48:56.373Z,28.1
2023-01-18T04:54:19.112Z,28.1
2023-01-18T04:59:41.386Z,28.1
2023-01-18T05:05:05.353Z,28
2023-01-18T05:10:27.853Z,28
2023-01-18T05:15:50.196Z,28
2023-01-18T05:21:13.162Z,27.9
2023-01-18T05:26:36.104Z,28.1
2023-01-18T05:32:01.705Z,28.1
2023-01-18T05:37:23.678Z,27.9
2023-01-18T05:47:56.614Z,27.7
2023-01-18T05:53:21.635Z,27.6
2023-01-18T05:58:43.693Z,27.4
2023-01-18T06:03:51.246Z,27.3
2023-01-18T06:08:59.012Z,27.3
2023-01-18T06:14:22.330Z,27.2
2023-01-18T06:19:31.486Z,27.2
2023-01-18T06:24:56.957Z,27.1
2023-01-18T06:30:19.749Z,27.1
2023-01-18T06:35:42.403Z,27
2023-01-18T06:41:05.693Z,26.9
2023-01-18T06:46:28.657Z,26.8
2023-01-18T06:51:51.487Z,26.8
2023-01-18T06:57:17.618Z,26.8
2023-01-18T07:02:41.792Z,26.8
2023-01-18T07:08:04.927Z,26.7
2023-01-18T07:13:12.376Z,26.6
2023-01-18T07:18:47.583Z,26.6
2023-01-18T07:24:10.143Z,43.3
2023-01-18T07:29:32.804Z,41
2023-01-18T07:34:58.595Z,38.9
2023-01-18T07:40:21.541Z,42.4
2023-01-18T07:45:47.165Z,44.9
2023-01-18T07:51:09.874Z,46.1
2023-01-18T07:56:32.828Z,46.6
2023-01-18T08:01:56.054Z,47.3
2023-01-18T08:07:19.653Z,47.9
2023-01-18T08:12:43.394Z,48.5
2023-01-18T08:18:10.113Z,49.1
2023-01-18T08:23:32.994Z,49.7
2023-01-18T08:28:55.826Z,50.3
2023-01-18T08:34:19.032Z,50.7
2023-01-18T08:39:42.150Z,51.1
2023-01-18T08:45:04.565Z,51.5
2023-01-18T08:50:27.589Z,51.9
2023-01-18T08:55:50.716Z,52.3
2023-01-18T09:01:00.190Z,52.6
2023-01-18T09:06:24.479Z,53
2023-01-18T09:11:47.964Z,53.4
2023-01-18T09:17:24.314Z,53.8
2023-01-18T09:22:48.893Z,54.1
2023-01-18T09:28:11.442Z,54.4
2023-01-18T09:33:37.745Z,54.8
2023-01-18T09:39:08.670Z,55.2
2023-01-18T09:44:40.467Z,55.5
2023-01-18T09:50:02.596Z,55.9
2023-01-18T09:55:24.979Z,56.2
2023-01-18T10:00:32.610Z,56.5
2023-01-18T10:05:56.108Z,56.8
2023-01-18T10:11:18.828Z,57.1
2023-01-18T10:16:42.871Z,57.4
2023-01-18T10:22:05.364Z,57.9
2023-01-18T10:27:27.682Z,58.1
2023-01-18T10:32:50.694Z,58.5
2023-01-18T10:38:14.025Z,58.8
2023-01-18T10:43:21.102Z,59.1
2023-01-18T10:48:45.150Z,59.4
2023-01-18T10:54:07.933Z,59.6
2023-01-18T10:59:30.880Z,59.9
2023-01-18T11:04:55.469Z,60.1
2023-01-18T11:10:17.698Z,60.4
2023-01-18T11:15:40.171Z,60.6
2023-01-18T11:21:04.863Z,60.9
2023-01-18T11:26:13.698Z,61.1
2023-01-18T11:31:38.890Z,61.3
2023-01-18T11:37:04.451Z,61.5
2023-01-18T11:42:26.288Z,61.6
2023-01-18T11:47:49.096Z,61.8
2023-01-18T11:53:28.154Z,62
2023-01-18T11:58:35.776Z,62.2
2023-01-18T12:03:59.786Z,62.1
2023-01-18T12:09:25.476Z,62.1
2023-01-18T12:15:04.296Z,62.3
2023-01-18T12:20:42.179Z,62.6
2023-01-18T12:26:12.435Z,62.6
2023-01-18T12:31:36.398Z,62.7
2023-01-18T12:37:18.948Z,62.7
2023-01-18T12:42:44.775Z,62.7
2023-01-18T12:48:07.095Z,62.6
2023-01-18T12:53:41.285Z,62.6
2023-01-18T12:59:04.986Z,62.5
2023-01-18T13:04:31.119Z,62.2
2023-01-18T13:09:54.552Z,59.6
2023-01-18T13:15:17.754Z,55.7
2023-01-18T13:20:39.865Z,52.4
2023-01-18T13:26:02.626Z,49.9
2023-01-18T13:31:26.674Z,48.1
2023-01-18T13:37:30.430Z,46.8
2023-01-18T13:43:00.135Z,45.6
2023-01-18T13:48:23.771Z,44.6
2023-01-18T13:54:04.770Z,43.8
2023-01-18T13:59:28.715Z,43.1
2023-01-18T14:04:52.840Z,42.4
2023-01-18T14:10:15.592Z,41.8
2023-01-18T14:15:40.758Z,41.3
2023-01-18T14:21:22.250Z,40.8
2023-01-18T14:26:44.558Z,40.3
2023-01-18T14:32:07.662Z,39.9
2023-01-18T14:37:31.499Z,39.4
2023-01-18T14:43:05.583Z,38.9
2023-01-18T14:48:30.553Z,38.5
2023-01-18T14:53:53.677Z,38.1
2023-01-18T14:59:16.330Z,37.8
2023-01-18T15:04:40.727Z,37.4
2023-01-18T15:09:48.166Z,37.1
2023-01-18T15:14:40.041Z,36.8
2023-01-18T15:19:47.763Z,36.6
2023-01-18T15:25:11.287Z,36.3
2023-01-18T15:30:48.953Z,36.1
2023-01-18T15:36:12.164Z,35.8
2023-01-18T15:41:35.314Z,35.6
2023-01-18T15:46:57.866Z,35.4
2023-01-18T15:52:05.235Z,35.2
2023-01-18T15:57:27.985Z,34.9
2023-01-18T16:02:52.503Z,34.6
2023-01-18T16:08:31.946Z,34.3
2023-01-18T16:13:54.502Z,34.1
2023-01-18T16:19:16.685Z,34.1
2023-01-18T16:24:39.662Z,34
2023-01-18T16:30:02.277Z,33.8
2023-01-18T16:35:27.704Z,33.6
2023-01-18T16:40:59.388Z,33.4
2023-01-18T16:46:34.943Z,33.3
2023-01-18T16:51:58.376Z,33.2
2023-01-18T16:57:21.453Z,32.9
2023-01-18T17:02:44.997Z,32.7
2023-01-18T17:08:07.223Z,32.6
2023-01-18T17:13:36.852Z,32.4
2023-01-18T17:19:03.937Z,32.1
2023-01-18T17:24:26.363Z,31.9
2023-01-18T17:29:49.681Z,31.8
2023-01-18T17:35:20.083Z,31.6
2023-01-18T17:41:36.213Z,31.5
2023-01-18T17:47:33.630Z,31.4
2023-01-18T17:52:42.689Z,31.3
2023-01-18T17:58:20.882Z,31.2
2023-01-18T18:03:46.181Z,31.1
2023-01-18T18:09:24.476Z,30.6
2023-01-18T18:14:48.742Z,29.9
2023-01-18T18:20:36.822Z,29.4
2023-01-18T18:25:45.859Z,29.1
2023-01-18T18:31:19.691Z,28.9
2023-01-18T18:36:58.336Z,28.8
2023-01-18T18:42:23.012Z,28.6
2023-01-18T18:47:55.031Z,28.5
2023-01-18T18:53:23.791Z,28.4
2023-01-18T18:58:36.628Z,28.4
2023-01-18T19:04:01.965Z,28.3
2023-01-18T19:09:26.539Z,28.3
2023-01-18T19:14:42.899Z,28.3
2023-01-18T19:20:16.998Z,28.2
2023-01-18T19:25:42.248Z,28.2
2023-01-18T19:31:06.771Z,28
2023-01-18T19:36:30.878Z,27.8
2023-01-18T19:42:09.063Z,27.4
2023-01-18T19:47:25.690Z,27.3
2023-01-18T19:52:45.313Z,27.1
2023-01-18T19:58:04.617Z,27
2023-01-18T20:03:33.800Z,26.9
2023-01-18T20:08:42.785Z,26.8
2023-01-18T20:14:01.918Z,26.8
2023-01-18T20:19:33.036Z,26.7
2023-01-18T20:25:05.196Z,26.6
2023-01-18T20:30:41.670Z,26.6
2023-01-18T20:36:15.244Z,26.6
2023-01-18T20:41:39.793Z,26.6
2023-01-18T20:46:48.383Z,26.6
2023-01-18T20:51:52.311Z,26.5
2023-01-18T20:57:33.604Z,26.4
2023-01-18T21:02:59.237Z,26.4
2023-01-18T21:08:07.642Z,26.4
2023-01-18T21:13:16.392Z,26.4
2023-01-18T21:18:24.683Z,26.4
2023-01-18T21:23:30.736Z,26.4
2023-01-18T21:28:54.052Z,26.4
2023-01-18T21:34:17.586Z,26.4
2023-01-18T21:39:40.845Z,26.3
2023-01-18T21:45:03.735Z,26.3
2023-01-18T21:51:08.259Z,26.3
2023-01-18T21:56:15.461Z,26.3
2023-01-18T22:01:39.522Z,26.3
2023-01-18T22:07:03.947Z,26.3
2023-01-18T22:12:33.559Z,26.3
2023-01-18T22:17:40.992Z,26.3
2023-01-18T22:23:04.073Z,26.3
2023-01-18T22:28:14.313Z,26.3
2023-01-18T22:33:36.810Z,26.3
2023-01-18T22:38:59.763Z,26.3
2023-01-18T22:44:22.340Z,26.2
2023-01-18T22:49:45.146Z,26.2
2023-01-18T22:55:07.788Z,26.2
2023-01-18T23:00:30.403Z,26.2
2023-01-18T23:05:38.041Z,26.2
2023-01-18T23:10:46.355Z,26.2
2023-01-18T23:15:53.654Z,26.2
2023-01-18T23:21:00.971Z,26.1
2023-01-18T23:26:23.354Z,26.1
2023-01-18T23:31:46.077Z,26.1
2023-01-18T23:36:38.003Z,26.1
2023-01-18T23:41:45.466Z,26.1
2023-01-18T23:47:08.772Z,26.1
2023-01-18T23:52:33.660Z,26.1
2023-01-18T23:57:56.482Z,26.1
